LFBH/LRH METAR and TAF weather

Enter ICAO airport designator
Station Type Date Time Source
LFBH METAR 2019/04/25 15:30 UTC NOAA

LFBH 251530Z AUTO 24014KT 200V270 9999 SCT032 BKN038 14/07 Q1006 NOSIG


Station Type Date Time Source
LFBH Decoded METAR 2019/04/25 15:30 UTC NOAA

La Rochelle, France (LFBH) 46-09N 001-09W 10M
Apr 25, 2019 - 11:30 AM EDT / 2019.04.25 1530 UTC
Wind: from the WSW (240 degrees) at 16 MPH (14 KT) (direction variable):0
Visibility: greater than 7 mile(s):0
Sky conditions: mostly cloudy
Temperature: 57 F (14 C)
Dew Point: 44 F (7 C)
Relative Humidity: 62%
Pressure (altimeter): 29.71 in. Hg (1006 hPa)
ob: LFBH 251530Z AUTO 24014KT 200V270 9999 SCT032 BKN038 14/07 Q1006 NOSIG
cycle: 15

Station Type Date Time Source
LFBH TAF 2019/04/25 12:21 UTC NOAA

TAF LFBH 251100Z 2512/2612 22012KT 9999 BKN040
TEMPO 2512/2513 22015G25KT 4000 SHRA FEW025CB BKN030TCU PROB40
TEMPO 2512/2513 24020G35KT 2500 TSRA BKN020CB
BECMG 2514/2516 24015KT
BECMG 2519/2521 16010KT
BECMG 2603/2605 25013KT PROB30 2604/2607 -SHRA BKN030TCU

Example: see airport list